sensor_id;sensor_type;location;lat;lon;timestamp;P1;durP1;ratioP1;P2;durP2;ratioP2
11957;SDS011;6039;52.576;13.348;2022-08-20T00:00:36;17.80;;;16.07;;
11957;SDS011;6039;52.576;13.348;2022-08-20T00:05:41;20.37;;;16.93;;
11957;SDS011;6039;52.576;13.348;2022-08-20T00:10:45;19.13;;;17.13;;
11957;SDS011;6039;52.576;13.348;2022-08-20T00:15:51;24.93;;;17.23;;
11957;SDS011;6039;52.576;13.348;2022-08-20T00:20:54;17.70;;;15.90;;
11957;SDS011;6039;52.576;13.348;2022-08-20T00:25:56;18.13;;;16.23;;
11957;SDS011;6039;52.576;13.348;2022-08-20T00:31:01;17.10;;;15.30;;
11957;SDS011;6039;52.576;13.348;2022-08-20T00:36:04;17.80;;;16.00;;
11957;SDS011;6039;52.576;13.348;2022-08-20T00:41:10;18.53;;;16.27;;
11957;SDS011;6039;52.576;13.348;2022-08-20T00:46:17;17.30;;;15.50;;
11957;SDS011;6039;52.576;13.348;2022-08-20T00:51:25;19.47;;;17.27;;
11957;SDS011;6039;52.576;13.348;2022-08-20T00:56:31;16.50;;;14.70;;
11957;SDS011;6039;52.576;13.348;2022-08-20T01:01:35;18.03;;;15.30;;
11957;SDS011;6039;52.576;13.348;2022-08-20T01:06:38;18.87;;;14.77;;
11957;SDS011;6039;52.576;13.348;2022-08-20T01:11:41;16.17;;;13.90;;
11957;SDS011;6039;52.576;13.348;2022-08-20T01:16:45;17.30;;;14.17;;
11957;SDS011;6039;52.576;13.348;2022-08-20T01:21:49;17.90;;;14.50;;
11957;SDS011;6039;52.576;13.348;2022-08-20T01:26:53;16.13;;;14.43;;
11957;SDS011;6039;52.576;13.348;2022-08-20T01:31:56;15.77;;;14.13;;
11957;SDS011;6039;52.576;13.348;2022-08-20T01:37:01;14.90;;;13.20;;
11957;SDS011;6039;52.576;13.348;2022-08-20T01:42:07;14.90;;;13.30;;
11957;SDS011;6039;52.576;13.348;2022-08-20T01:47:13;14.93;;;13.53;;
11957;SDS011;6039;52.576;13.348;2022-08-20T01:52:20;15.03;;;13.53;;
11957;SDS011;6039;52.576;13.348;2022-08-20T01:57:36;13.50;;;12.10;;
11957;SDS011;6039;52.576;13.348;2022-08-20T02:02:38;13.13;;;11.80;;
11957;SDS011;6039;52.576;13.348;2022-08-20T02:07:41;12.53;;;11.33;;
11957;SDS011;6039;52.576;13.348;2022-08-20T02:12:45;13.60;;;11.97;;
11957;SDS011;6039;52.576;13.348;2022-08-20T02:17:47;13.37;;;11.97;;
11957;SDS011;6039;52.576;13.348;2022-08-20T02:22:51;14.37;;;12.67;;
11957;SDS011;6039;52.576;13.348;2022-08-20T02:27:56;14.23;;;12.73;;
11957;SDS011;6039;52.576;13.348;2022-08-20T02:33:00;16.60;;;15.00;;
11957;SDS011;6039;52.576;13.348;2022-08-20T02:38:04;16.83;;;15.17;;
11957;SDS011;6039;52.576;13.348;2022-08-20T02:43:08;18.77;;;16.23;;
11957;SDS011;6039;52.576;13.348;2022-08-20T02:48:14;18.23;;;16.27;;
11957;SDS011;6039;52.576;13.348;2022-08-20T02:53:22;19.43;;;17.33;;
11957;SDS011;6039;52.576;13.348;2022-08-20T02:58:26;25.20;;;19.07;;
11957;SDS011;6039;52.576;13.348;2022-08-20T03:03:29;19.97;;;17.87;;
11957;SDS011;6039;52.576;13.348;2022-08-20T03:08:31;23.03;;;19.17;;
11957;SDS011;6039;52.576;13.348;2022-08-20T03:13:35;23.77;;;19.37;;
11957;SDS011;6039;52.576;13.348;2022-08-20T03:18:39;21.63;;;19.33;;
11957;SDS011;6039;52.576;13.348;2022-08-20T03:23:43;25.70;;;20.47;;
11957;SDS011;6039;52.576;13.348;2022-08-20T03:28:47;24.47;;;21.80;;
11957;SDS011;6039;52.576;13.348;2022-08-20T03:33:50;27.23;;;23.67;;
11957;SDS011;6039;52.576;13.348;2022-08-20T03:38:52;27.83;;;23.80;;
11957;SDS011;6039;52.576;13.348;2022-08-20T03:43:56;28.87;;;24.37;;
11957;SDS011;6039;52.576;13.348;2022-08-20T03:48:59;27.90;;;23.77;;
11957;SDS011;6039;52.576;13.348;2022-08-20T03:54:01;28.40;;;24.23;;
11957;SDS011;6039;52.576;13.348;2022-08-20T03:59:05;26.67;;;23.77;;
11957;SDS011;6039;52.576;13.348;2022-08-20T04:04:07;28.63;;;24.03;;
11957;SDS011;6039;52.576;13.348;2022-08-20T04:09:10;26.50;;;23.63;;
11957;SDS011;6039;52.576;13.348;2022-08-20T04:14:14;28.03;;;24.03;;
11957;SDS011;6039;52.576;13.348;2022-08-20T04:19:17;31.97;;;23.97;;
11957;SDS011;6039;52.576;13.348;2022-08-20T04:24:20;33.60;;;23.97;;
11957;SDS011;6039;52.576;13.348;2022-08-20T04:29:24;28.73;;;23.90;;
11957;SDS011;6039;52.576;13.348;2022-08-20T04:34:27;30.67;;;23.57;;
11957;SDS011;6039;52.576;13.348;2022-08-20T04:39:29;27.73;;;22.80;;
11957;SDS011;6039;52.576;13.348;2022-08-20T04:44:33;27.57;;;23.63;;
11957;SDS011;6039;52.576;13.348;2022-08-20T04:49:36;25.93;;;21.47;;
11957;SDS011;6039;52.576;13.348;2022-08-20T04:54:39;26.50;;;22.37;;
11957;SDS011;6039;52.576;13.348;2022-08-20T04:59:44;25.17;;;22.17;;
11957;SDS011;6039;52.576;13.348;2022-08-20T05:04:47;24.03;;;21.43;;
11957;SDS011;6039;52.576;13.348;2022-08-20T05:09:49;22.67;;;20.00;;
11957;SDS011;6039;52.576;13.348;2022-08-20T05:14:53;22.27;;;19.63;;
11957;SDS011;6039;52.576;13.348;2022-08-20T05:19:57;23.50;;;18.93;;
11957;SDS011;6039;52.576;13.348;2022-08-20T05:25:00;23.67;;;21.17;;
11957;SDS011;6039;52.576;13.348;2022-08-20T05:30:05;23.57;;;20.80;;
11957;SDS011;6039;52.576;13.348;2022-08-20T05:35:10;25.60;;;21.10;;
11957;SDS011;6039;52.576;13.348;2022-08-20T05:40:12;23.57;;;20.13;;
11957;SDS011;6039;52.576;13.348;2022-08-20T05:45:16;24.03;;;21.43;;
11957;SDS011;6039;52.576;13.348;2022-08-20T05:50:19;25.53;;;21.90;;
11957;SDS011;6039;52.576;13.348;2022-08-20T05:55:21;25.63;;;21.67;;
11957;SDS011;6039;52.576;13.348;2022-08-20T06:00:29;23.53;;;21.03;;
11957;SDS011;6039;52.576;13.348;2022-08-20T06:05:34;34.50;;;23.43;;
11957;SDS011;6039;52.576;13.348;2022-08-20T06:10:38;26.37;;;23.10;;
11957;SDS011;6039;52.576;13.348;2022-08-20T06:15:44;27.43;;;23.83;;
11957;SDS011;6039;52.576;13.348;2022-08-20T06:20:48;25.13;;;22.47;;
11957;SDS011;6039;52.576;13.348;2022-08-20T06:25:51;27.53;;;24.07;;
11957;SDS011;6039;52.576;13.348;2022-08-20T06:30:56;29.07;;;24.37;;
11957;SDS011;6039;52.576;13.348;2022-08-20T06:36:02;28.07;;;23.60;;
11957;SDS011;6039;52.576;13.348;2022-08-20T06:41:06;20.47;;;18.27;;
11957;SDS011;6039;52.576;13.348;2022-08-20T06:46:11;25.50;;;22.13;;
11957;SDS011;6039;52.576;13.348;2022-08-20T06:51:16;23.80;;;21.20;;
11957;SDS011;6039;52.576;13.348;2022-08-20T06:56:21;25.50;;;22.70;;
11957;SDS011;6039;52.576;13.348;2022-08-20T07:01:26;25.77;;;22.90;;
11957;SDS011;6039;52.576;13.348;2022-08-20T07:06:29;18.30;;;16.30;;
11957;SDS011;6039;52.576;13.348;2022-08-20T07:11:31;24.30;;;20.50;;
11957;SDS011;6039;52.576;13.348;2022-08-20T07:16:35;20.17;;;17.73;;
11957;SDS011;6039;52.576;13.348;2022-08-20T07:21:38;22.97;;;20.43;;
11957;SDS011;6039;52.576;13.348;2022-08-20T07:26:40;25.03;;;21.67;;
11957;SDS011;6039;52.576;13.348;2022-08-20T07:31:44;20.40;;;18.30;;
11957;SDS011;6039;52.576;13.348;2022-08-20T07:37:03;33.23;;;25.90;;
11957;SDS011;6039;52.576;13.348;2022-08-20T07:42:06;29.47;;;24.47;;
11957;SDS011;6039;52.576;13.348;2022-08-20T07:47:10;32.47;;;24.77;;
11957;SDS011;6039;52.576;13.348;2022-08-20T07:52:12;33.10;;;26.23;;
11957;SDS011;6039;52.576;13.348;2022-08-20T07:57:14;30.80;;;26.03;;
11957;SDS011;6039;52.576;13.348;2022-08-20T08:02:19;35.27;;;29.23;;
11957;SDS011;6039;52.576;13.348;2022-08-20T08:07:23;37.67;;;31.00;;
11957;SDS011;6039;52.576;13.348;2022-08-20T08:12:26;34.70;;;27.87;;
11957;SDS011;6039;52.576;13.348;2022-08-20T08:17:35;30.50;;;25.33;;
11957;SDS011;6039;52.576;13.348;2022-08-20T08:22:37;32.57;;;27.60;;
11957;SDS011;6039;52.576;13.348;2022-08-20T08:27:41;33.20;;;27.57;;
11957;SDS011;6039;52.576;13.348;2022-08-20T08:32:48;28.43;;;25.33;;
11957;SDS011;6039;52.576;13.348;2022-08-20T08:38:07;34.40;;;28.73;;
11957;SDS011;6039;52.576;13.348;2022-08-20T08:43:11;30.87;;;24.27;;
11957;SDS011;6039;52.576;13.348;2022-08-20T08:48:21;29.07;;;24.50;;
11957;SDS011;6039;52.576;13.348;2022-08-20T08:53:35;40.07;;;31.23;;
11957;SDS011;6039;52.576;13.348;2022-08-20T08:58:41;33.73;;;29.33;;
11957;SDS011;6039;52.576;13.348;2022-08-20T09:03:45;27.93;;;21.47;;
11957;SDS011;6039;52.576;13.348;2022-08-20T09:08:51;32.47;;;28.17;;
11957;SDS011;6039;52.576;13.348;2022-08-20T09:13:54;28.33;;;25.23;;
11957;SDS011;6039;52.576;13.348;2022-08-20T09:18:59;24.70;;;21.93;;
11957;SDS011;6039;52.576;13.348;2022-08-20T09:24:01;24.13;;;19.47;;
11957;SDS011;6039;52.576;13.348;2022-08-20T09:29:05;31.37;;;26.83;;
11957;SDS011;6039;52.576;13.348;2022-08-20T09:34:09;25.20;;;21.63;;
11957;SDS011;6039;52.576;13.348;2022-08-20T09:39:12;33.07;;;26.50;;
11957;SDS011;6039;52.576;13.348;2022-08-20T09:44:15;31.33;;;25.83;;
11957;SDS011;6039;52.576;13.348;2022-08-20T09:49:20;24.63;;;21.97;;
11957;SDS011;6039;52.576;13.348;2022-08-20T09:54:23;28.03;;;24.60;;
11957;SDS011;6039;52.576;13.348;2022-08-20T09:59:29;20.30;;;17.67;;
11957;SDS011;6039;52.576;13.348;2022-08-20T10:04:33;25.17;;;21.17;;
11957;SDS011;6039;52.576;13.348;2022-08-20T10:09:36;119.70;;;32.73;;
11957;SDS011;6039;52.576;13.348;2022-08-20T10:14:39;19.10;;;15.70;;
11957;SDS011;6039;52.576;13.348;2022-08-20T10:19:43;18.50;;;16.47;;
11957;SDS011;6039;52.576;13.348;2022-08-20T10:24:46;17.10;;;15.37;;
11957;SDS011;6039;52.576;13.348;2022-08-20T10:29:49;19.70;;;17.57;;
11957;SDS011;6039;52.576;13.348;2022-08-20T10:34:53;17.87;;;16.00;;
11957;SDS011;6039;52.576;13.348;2022-08-20T10:39:55;17.23;;;15.53;;
11957;SDS011;6039;52.576;13.348;2022-08-20T10:44:58;22.70;;;16.90;;
11957;SDS011;6039;52.576;13.348;2022-08-20T10:50:03;16.93;;;15.20;;
11957;SDS011;6039;52.576;13.348;2022-08-20T10:55:08;17.67;;;15.20;;
11957;SDS011;6039;52.576;13.348;2022-08-20T11:00:11;14.73;;;11.97;;
11957;SDS011;6039;52.576;13.348;2022-08-20T11:05:17;17.33;;;13.43;;
11957;SDS011;6039;52.576;13.348;2022-08-20T11:10:20;16.13;;;13.57;;
11957;SDS011;6039;52.576;13.348;2022-08-20T11:15:23;16.40;;;13.30;;
11957;SDS011;6039;52.576;13.348;2022-08-20T11:20:26;17.17;;;11.47;;
11957;SDS011;6039;52.576;13.348;2022-08-20T11:25:30;14.00;;;9.33;;
11957;SDS011;6039;52.576;13.348;2022-08-20T11:30:34;11.53;;;10.00;;
11957;SDS011;6039;52.576;13.348;2022-08-20T11:35:38;10.23;;;9.23;;
11957;SDS011;6039;52.576;13.348;2022-08-20T11:40:40;11.97;;;8.27;;
11957;SDS011;6039;52.576;13.348;2022-08-20T11:45:43;12.97;;;8.43;;
11957;SDS011;6039;52.576;13.348;2022-08-20T11:50:48;9.87;;;8.30;;
11957;SDS011;6039;52.576;13.348;2022-08-20T11:55:50;8.83;;;7.57;;
11957;SDS011;6039;52.576;13.348;2022-08-20T12:00:53;9.77;;;7.37;;
11957;SDS011;6039;52.576;13.348;2022-08-20T12:05:56;10.97;;;7.17;;
11957;SDS011;6039;52.576;13.348;2022-08-20T12:10:59;8.03;;;7.23;;
11957;SDS011;6039;52.576;13.348;2022-08-20T12:16:03;11.10;;;8.30;;
11957;SDS011;6039;52.576;13.348;2022-08-20T12:21:07;7.63;;;6.80;;
11957;SDS011;6039;52.576;13.348;2022-08-20T12:26:09;8.53;;;6.37;;
11957;SDS011;6039;52.576;13.348;2022-08-20T12:31:12;7.67;;;6.97;;
11957;SDS011;6039;52.576;13.348;2022-08-20T12:36:15;8.30;;;6.70;;
11957;SDS011;6039;52.576;13.348;2022-08-20T12:41:18;7.73;;;7.03;;
11957;SDS011;6039;52.576;13.348;2022-08-20T12:46:20;7.37;;;6.07;;
11957;SDS011;6039;52.576;13.348;2022-08-20T12:51:24;6.80;;;6.10;;
11957;SDS011;6039;52.576;13.348;2022-08-20T12:56:26;10.13;;;6.63;;
11957;SDS011;6039;52.576;13.348;2022-08-20T13:01:28;6.53;;;5.43;;
11957;SDS011;6039;52.576;13.348;2022-08-20T13:06:32;9.53;;;6.30;;
11957;SDS011;6039;52.576;13.348;2022-08-20T13:11:35;7.50;;;6.80;;
11957;SDS011;6039;52.576;13.348;2022-08-20T13:16:37;17.30;;;7.57;;
11957;SDS011;6039;52.576;13.348;2022-08-20T13:21:41;8.23;;;7.30;;
11957;SDS011;6039;52.576;13.348;2022-08-20T13:26:44;10.07;;;8.27;;
11957;SDS011;6039;52.576;13.348;2022-08-20T13:31:46;8.30;;;7.50;;
11957;SDS011;6039;52.576;13.348;2022-08-20T13:36:50;8.07;;;7.27;;
11957;SDS011;6039;52.576;13.348;2022-08-20T13:41:54;9.77;;;8.07;;
11957;SDS011;6039;52.576;13.348;2022-08-20T13:46:56;9.13;;;8.10;;
11957;SDS011;6039;52.576;13.348;2022-08-20T13:52:00;9.53;;;8.63;;
11957;SDS011;6039;52.576;13.348;2022-08-20T13:57:14;10.27;;;8.67;;
11957;SDS011;6039;52.576;13.348;2022-08-20T14:02:23;10.87;;;9.60;;
11957;SDS011;6039;52.576;13.348;2022-08-20T14:07:31;8.17;;;6.73;;
11957;SDS011;6039;52.576;13.348;2022-08-20T14:12:36;11.10;;;9.57;;
11957;SDS011;6039;52.576;13.348;2022-08-20T14:17:40;11.40;;;10.10;;
11957;SDS011;6039;52.576;13.348;2022-08-20T14:22:49;14.50;;;11.03;;
11957;SDS011;6039;52.576;13.348;2022-08-20T14:28:00;12.47;;;10.70;;
11957;SDS011;6039;52.576;13.348;2022-08-20T14:33:10;12.40;;;11.10;;
11957;SDS011;6039;52.576;13.348;2022-08-20T14:38:14;13.20;;;11.87;;
11957;SDS011;6039;52.576;13.348;2022-08-20T14:43:17;12.20;;;10.90;;
11957;SDS011;6039;52.576;13.348;2022-08-20T14:48:20;13.17;;;11.53;;
11957;SDS011;6039;52.576;13.348;2022-08-20T14:53:25;16.17;;;11.07;;
11957;SDS011;6039;52.576;13.348;2022-08-20T14:58:28;14.33;;;12.03;;
11957;SDS011;6039;52.576;13.348;2022-08-20T15:03:31;13.27;;;11.90;;
11957;SDS011;6039;52.576;13.348;2022-08-20T15:08:35;14.43;;;12.73;;
11957;SDS011;6039;52.576;13.348;2022-08-20T15:13:37;15.30;;;12.37;;
11957;SDS011;6039;52.576;13.348;2022-08-20T15:18:40;16.03;;;14.13;;
11957;SDS011;6039;52.576;13.348;2022-08-20T15:23:44;16.70;;;14.57;;
11957;SDS011;6039;52.576;13.348;2022-08-20T15:28:48;16.53;;;14.27;;
11957;SDS011;6039;52.576;13.348;2022-08-20T15:33:52;16.93;;;14.43;;
11957;SDS011;6039;52.576;13.348;2022-08-20T15:38:56;13.80;;;12.50;;
11957;SDS011;6039;52.576;13.348;2022-08-20T15:43:58;20.07;;;15.70;;
11957;SDS011;6039;52.576;13.348;2022-08-20T15:49:01;14.23;;;12.53;;
11957;SDS011;6039;52.576;13.348;2022-08-20T15:54:06;14.90;;;12.13;;
11957;SDS011;6039;52.576;13.348;2022-08-20T15:59:14;16.07;;;13.07;;
11957;SDS011;6039;52.576;13.348;2022-08-20T16:04:35;16.80;;;14.40;;
11957;SDS011;6039;52.576;13.348;2022-08-20T16:10:13;17.80;;;14.87;;
11957;SDS011;6039;52.576;13.348;2022-08-20T16:15:21;17.27;;;15.47;;
11957;SDS011;6039;52.576;13.348;2022-08-20T16:20:29;17.40;;;15.47;;
11957;SDS011;6039;52.576;13.348;2022-08-20T16:25:38;16.23;;;13.93;;
11957;SDS011;6039;52.576;13.348;2022-08-20T16:30:50;17.90;;;15.73;;
11957;SDS011;6039;52.576;13.348;2022-08-20T16:36:07;18.83;;;16.83;;
11957;SDS011;6039;52.576;13.348;2022-08-20T16:41:20;17.27;;;15.47;;
11957;SDS011;6039;52.576;13.348;2022-08-20T16:46:27;18.30;;;16.30;;
11957;SDS011;6039;52.576;13.348;2022-08-20T16:51:34;16.77;;;14.83;;
11957;SDS011;6039;52.576;13.348;2022-08-20T16:56:40;18.83;;;16.63;;
11957;SDS011;6039;52.576;13.348;2022-08-20T17:01:44;17.73;;;16.00;;
11957;SDS011;6039;52.576;13.348;2022-08-20T17:06:47;19.43;;;17.43;;
11957;SDS011;6039;52.576;13.348;2022-08-20T17:11:52;19.17;;;17.00;;
11957;SDS011;6039;52.576;13.348;2022-08-20T17:16:54;17.70;;;15.90;;
11957;SDS011;6039;52.576;13.348;2022-08-20T17:22:06;19.63;;;16.53;;
11957;SDS011;6039;52.576;13.348;2022-08-20T17:27:11;17.67;;;15.80;;
11957;SDS011;6039;52.576;13.348;2022-08-20T17:32:17;17.13;;;15.33;;
11957;SDS011;6039;52.576;13.348;2022-08-20T17:37:24;14.60;;;13.10;;
11957;SDS011;6039;52.576;13.348;2022-08-20T17:42:28;11.80;;;9.87;;
11957;SDS011;6039;52.576;13.348;2022-08-20T17:47:32;10.40;;;8.33;;
11957;SDS011;6039;52.576;13.348;2022-08-20T17:52:38;9.93;;;8.13;;
11957;SDS011;6039;52.576;13.348;2022-08-20T17:57:46;9.20;;;8.17;;
11957;SDS011;6039;52.576;13.348;2022-08-20T18:02:51;8.93;;;6.80;;
11957;SDS011;6039;52.576;13.348;2022-08-20T18:08:05;9.53;;;7.13;;
11957;SDS011;6039;52.576;13.348;2022-08-20T18:13:22;8.50;;;6.30;;
11957;SDS011;6039;52.576;13.348;2022-08-20T18:18:34;8.23;;;6.00;;
11957;SDS011;6039;52.576;13.348;2022-08-20T18:23:44;9.40;;;6.33;;
11957;SDS011;6039;52.576;13.348;2022-08-20T18:28:52;11.37;;;6.33;;
11957;SDS011;6039;52.576;13.348;2022-08-20T18:33:56;7.13;;;6.17;;
11957;SDS011;6039;52.576;13.348;2022-08-20T18:39:10;13.23;;;7.10;;
11957;SDS011;6039;52.576;13.348;2022-08-20T18:44:29;8.73;;;6.60;;
11957;SDS011;6039;52.576;13.348;2022-08-20T18:49:39;10.60;;;6.97;;
11957;SDS011;6039;52.576;13.348;2022-08-20T18:54:48;10.03;;;6.90;;
11957;SDS011;6039;52.576;13.348;2022-08-20T18:59:55;11.93;;;7.57;;
11957;SDS011;6039;52.576;13.348;2022-08-20T19:05:01;10.47;;;7.13;;
11957;SDS011;6039;52.576;13.348;2022-08-20T19:10:14;12.53;;;7.27;;
11957;SDS011;6039;52.576;13.348;2022-08-20T19:15:29;11.33;;;7.90;;
11957;SDS011;6039;52.576;13.348;2022-08-20T19:20:36;9.07;;;7.17;;
11957;SDS011;6039;52.576;13.348;2022-08-20T19:25:48;11.50;;;7.30;;
11957;SDS011;6039;52.576;13.348;2022-08-20T19:30:54;10.50;;;7.43;;
11957;SDS011;6039;52.576;13.348;2022-08-20T19:36:09;9.80;;;7.30;;
11957;SDS011;6039;52.576;13.348;2022-08-20T19:41:17;7.93;;;6.43;;
11957;SDS011;6039;52.576;13.348;2022-08-20T19:46:30;8.83;;;6.53;;
11957;SDS011;6039;52.576;13.348;2022-08-20T19:51:41;10.40;;;6.63;;
11957;SDS011;6039;52.576;13.348;2022-08-20T19:57:12;9.33;;;7.13;;
11957;SDS011;6039;52.576;13.348;2022-08-20T20:02:18;9.57;;;7.20;;
11957;SDS011;6039;52.576;13.348;2022-08-20T20:07:24;9.37;;;6.53;;
11957;SDS011;6039;52.576;13.348;2022-08-20T20:12:30;9.50;;;6.77;;
11957;SDS011;6039;52.576;13.348;2022-08-20T20:17:35;13.10;;;7.50;;
11957;SDS011;6039;52.576;13.348;2022-08-20T20:22:46;9.57;;;6.93;;
11957;SDS011;6039;52.576;13.348;2022-08-20T20:27:51;10.80;;;7.47;;
11957;SDS011;6039;52.576;13.348;2022-08-20T20:32:56;9.37;;;7.13;;
11957;SDS011;6039;52.576;13.348;2022-08-20T20:38:00;11.30;;;8.47;;
11957;SDS011;6039;52.576;13.348;2022-08-20T20:43:05;14.20;;;8.13;;
11957;SDS011;6039;52.576;13.348;2022-08-20T20:48:16;11.57;;;7.50;;
11957;SDS011;6039;52.576;13.348;2022-08-20T20:53:24;13.00;;;8.37;;
11957;SDS011;6039;52.576;13.348;2022-08-20T20:58:31;11.83;;;8.07;;
11957;SDS011;6039;52.576;13.348;2022-08-20T21:03:36;9.83;;;7.93;;
11957;SDS011;6039;52.576;13.348;2022-08-20T21:08:38;10.03;;;7.90;;
11957;SDS011;6039;52.576;13.348;2022-08-20T21:13:42;11.07;;;7.43;;
11957;SDS011;6039;52.576;13.348;2022-08-20T21:18:46;10.10;;;7.03;;
11957;SDS011;6039;52.576;13.348;2022-08-20T21:23:49;8.03;;;6.77;;
11957;SDS011;6039;52.576;13.348;2022-08-20T21:28:52;7.07;;;6.23;;
11957;SDS011;6039;52.576;13.348;2022-08-20T21:33:57;7.30;;;6.10;;
11957;SDS011;6039;52.576;13.348;2022-08-20T21:38:59;7.50;;;6.70;;
11957;SDS011;6039;52.576;13.348;2022-08-20T21:44:05;7.83;;;6.43;;
11957;SDS011;6039;52.576;13.348;2022-08-20T21:49:11;8.83;;;6.73;;
11957;SDS011;6039;52.576;13.348;2022-08-20T21:54:14;10.37;;;6.43;;
11957;SDS011;6039;52.576;13.348;2022-08-20T21:59:20;7.70;;;6.17;;
11957;SDS011;6039;52.576;13.348;2022-08-20T22:04:25;7.90;;;5.67;;
11957;SDS011;6039;52.576;13.348;2022-08-20T22:09:27;6.40;;;5.53;;
11957;SDS011;6039;52.576;13.348;2022-08-20T22:14:30;7.73;;;5.80;;
11957;SDS011;6039;52.576;13.348;2022-08-20T22:19:34;8.73;;;6.17;;
11957;SDS011;6039;52.576;13.348;2022-08-20T22:24:38;9.50;;;6.63;;
11957;SDS011;6039;52.576;13.348;2022-08-20T22:29:41;7.73;;;6.07;;
11957;SDS011;6039;52.576;13.348;2022-08-20T22:34:45;7.47;;;6.27;;
11957;SDS011;6039;52.576;13.348;2022-08-20T22:39:48;9.57;;;6.17;;
11957;SDS011;6039;52.576;13.348;2022-08-20T22:44:51;9.20;;;7.43;;
11957;SDS011;6039;52.576;13.348;2022-08-20T22:49:55;9.60;;;7.40;;
11957;SDS011;6039;52.576;13.348;2022-08-20T22:54:58;10.20;;;8.03;;
11957;SDS011;6039;52.576;13.348;2022-08-20T23:00:01;12.47;;;7.73;;
11957;SDS011;6039;52.576;13.348;2022-08-20T23:05:06;12.07;;;8.10;;
11957;SDS011;6039;52.576;13.348;2022-08-20T23:10:09;12.30;;;8.23;;
11957;SDS011;6039;52.576;13.348;2022-08-20T23:15:12;11.87;;;8.67;;
11957;SDS011;6039;52.576;13.348;2022-08-20T23:20:17;11.97;;;8.37;;
11957;SDS011;6039;52.576;13.348;2022-08-20T23:25:19;12.10;;;7.93;;
11957;SDS011;6039;52.576;13.348;2022-08-20T23:30:23;11.40;;;8.00;;
11957;SDS011;6039;52.576;13.348;2022-08-20T23:35:29;12.23;;;7.63;;
11957;SDS011;6039;52.576;13.348;2022-08-20T23:40:33;11.60;;;7.63;;
11957;SDS011;6039;52.576;13.348;2022-08-20T23:45:37;13.07;;;8.20;;
11957;SDS011;6039;52.576;13.348;2022-08-20T23:50:42;12.03;;;8.07;;
11957;SDS011;6039;52.576;13.348;2022-08-20T23:55:45;11.40;;;7.67;;
